Berberati Airport


Codes: FEFT/BBT
Name: Berberati Airport
City: Berberati
Country: Central African Republic
Elevation: 1929 ft.
Wikipedia:

Photos at Berberati Airport


   Photos courtesy of SpottingLog. You can add your own sightings and photos by signing up for a free trial today.



No photos found.

Weather at Berberati Airport


Time (UTC)DescriptionTempratureWindCloud coverageVisibilityPressureHumidity
26-Jun-2024 00:00Light Rain24°C2 mph, NW97%10000m1011hPa81%
26-Jun-2024 03:00Light Rain22°C2 mph, W99%10000m1011hPa90%
26-Jun-2024 06:00Light Rain22°C2 mph, NW85%10000m1013hPa92%
26-Jun-2024 09:00Broken Clouds28°C2 mph, W82%10000m1012hPa60%
26-Jun-2024 12:00Light Rain33°C2 mph, W59%10000m1008hPa42%
26-Jun-2024 15:00Light Rain24°C7 mph, N98%10000m1008hPa85%
26-Jun-2024 18:00Light Rain22°C2 mph, N93%10000m1009hPa94%
26-Jun-2024 21:00Light Rain21°C2 mph, W77%10000m1011hPa96%
27-Jun-2024 00:00Light Rain20°C2 mph, NW86%10000m1011hPa97%
27-Jun-2024 03:00Moderate Rain21°C2 mph, NW99%10000m1011hPa98%
27-Jun-2024 06:00Light Rain21°C2 mph, NW98%10000m1013hPa98%
27-Jun-2024 09:00Light Rain25°C2 mph, W92%10000m1013hPa79%
27-Jun-2024 12:00Light Rain28°C2 mph, SW96%10000m1010hPa65%
27-Jun-2024 15:00Light Rain27°C4 mph, SW98%10000m1009hPa76%
27-Jun-2024 18:00Light Rain23°C2 mph, W98%10000m1010hPa89%
27-Jun-2024 21:00Light Rain21°C2 mph, SW96%10000m1012hPa93%
28-Jun-2024 00:00Light Rain21°C4 mph, W88%10000m1012hPa97%
28-Jun-2024 03:00Overcast Clouds21°C4 mph, W86%10000m1011hPa93%
28-Jun-2024 06:00Overcast Clouds22°C4 mph, NW92%10000m1013hPa90%
28-Jun-2024 09:00Overcast Clouds28°C4 mph, W100%10000m1012hPa59%
28-Jun-2024 12:00Overcast Clouds31°C4 mph, W100%10000m1010hPa47%
28-Jun-2024 15:00Light Rain28°C4 mph, NW100%10000m1008hPa64%
28-Jun-2024 18:00Heavy Intensity Rain21°C2 mph, NE100%4507m1011hPa99%
28-Jun-2024 21:00Heavy Intensity Rain21°C4 mph, W100%10000m1013hPa99%
29-Jun-2024 00:00Light Rain20°C2 mph, NW100%10000m1012hPa99%
29-Jun-2024 03:00Light Rain20°C2 mph, W100%10000m1012hPa99%
29-Jun-2024 06:00Light Rain21°C2 mph, NW99%10000m1014hPa97%
29-Jun-2024 09:00Overcast Clouds24°C2 mph, N96%10000m1014hPa81%
29-Jun-2024 12:00Overcast Clouds26°C2 mph, N98%10000m1012hPa70%
29-Jun-2024 15:00Overcast Clouds25°C2 mph, N100%10000m1011hPa78%
29-Jun-2024 18:00Overcast Clouds23°C0 mph, NE100%10000m1012hPa86%
29-Jun-2024 21:00Overcast Clouds21°C0 mph, S100%10000m1013hPa92%
30-Jun-2024 00:00Overcast Clouds21°C2 mph, SW100%10000m1013hPa92%
30-Jun-2024 03:00Overcast Clouds20°C2 mph, W100%10000m1012hPa97%
30-Jun-2024 06:00Overcast Clouds22°C2 mph, W96%10000m1014hPa89%
30-Jun-2024 09:00Broken Clouds28°C4 mph, W80%10000m1014hPa62%
30-Jun-2024 12:00Light Rain31°C4 mph, W58%10000m1011hPa48%
30-Jun-2024 15:00Broken Clouds28°C2 mph, SW71%10000m1009hPa64%
30-Jun-2024 18:00Light Rain21°C2 mph, W70%10000m1011hPa95%
30-Jun-2024 21:00Light Rain21°C2 mph, W80%10000m1013hPa95%